Time,TemperatureF,DewpointF,PressureIn,WindDirection,WindDirectionDegrees,WindSpeedMPH,WindSpeedGustMPH,Humidity,HourlyPrecipIn,Conditions,Clouds,dailyrainin,SoftwareType,DateUTC
2013-01-19 00:02:00,31.6,27.0,30.29,ESE,114,0.0,0.0,83,0.00,,---,0.00,VWS V14.01,2013-01-19 06:02:00,
2013-01-19 00:07:00,31.2,26.6,30.29,ESE,114,0.0,0.0,83,0.00,,---,0.00,VWS V14.01,2013-01-19 06:07:00,
2013-01-19 00:12:00,30.9,26.4,30.29,ESE,114,0.0,0.0,83,0.00,,---,0.00,VWS V14.01,2013-01-19 06:12:00,
2013-01-19 00:17:00,30.7,26.5,30.29,ESE,114,0.0,0.0,84,0.00,,---,0.00,VWS V14.01,2013-01-19 06:17:00,
2013-01-19 00:22:00,30.6,26.4,30.29,ESE,114,0.0,0.0,84,0.00,,---,0.00,VWS V14.01,2013-01-19 06:22:00,
2013-01-19 00:27:00,30.4,26.4,30.29,ESE,114,0.0,0.0,85,0.00,,---,0.00,VWS V14.01,2013-01-19 06:27:00,
2013-01-19 00:32:00,30.3,26.3,30.29,ESE,114,0.0,0.0,85,0.00,,---,0.00,VWS V14.01,2013-01-19 06:32:00,
2013-01-19 00:37:00,30.3,26.3,30.29,ESE,114,0.0,0.0,85,0.00,,---,0.00,VWS V14.01,2013-01-19 06:37:00,
2013-01-19 00:42:00,30.1,26.4,30.29,ESE,114,0.0,0.0,86,0.00,,---,0.00,VWS V14.01,2013-01-19 06:42:00,
2013-01-19 00:47:00,30.0,26.3,30.29,ESE,114,0.0,0.0,86,0.00,,---,0.00,VWS V14.01,2013-01-19 06:47:00,
2013-01-19 00:52:00,29.8,26.1,30.29,ESE,114,0.0,0.0,86,0.00,,---,0.00,VWS V14.01,2013-01-19 06:52:00,
2013-01-19 00:57:00,29.5,25.8,30.29,ESE,114,0.0,0.0,86,0.00,,---,0.00,VWS V14.01,2013-01-19 06:57:00,
2013-01-19 01:02:00,29.3,25.6,30.29,ESE,114,0.0,0.0,86,0.00,,---,0.00,VWS V14.01,2013-01-19 07:02:00,
2013-01-19 01:07:00,29.1,25.4,30.29,ESE,114,0.0,0.0,86,0.00,,---,0.00,VWS V14.01,2013-01-19 07:07:00,
2013-01-19 01:12:00,29.1,25.7,30.29,ESE,114,0.0,0.0,87,0.00,,---,0.00,VWS V14.01,2013-01-19 07:12:00,
2013-01-19 01:17:00,28.8,25.4,30.29,ESE,114,0.0,0.0,87,0.00,,---,0.00,VWS V14.01,2013-01-19 07:17:00,
2013-01-19 01:22:00,28.5,25.1,30.29,ESE,114,0.0,0.0,87,0.00,,---,0.00,VWS V14.01,2013-01-19 07:22:00,
2013-01-19 01:27:00,28.4,25.3,30.29,ESE,114,0.0,0.0,88,0.00,,---,0.00,VWS V14.01,2013-01-19 07:27:00,
2013-01-19 01:32:00,28.2,25.1,30.29,ESE,114,0.0,0.0,88,0.00,,---,0.00,VWS V14.01,2013-01-19 07:32:00,
2013-01-19 01:37:00,28.2,25.1,30.28,ESE,114,0.0,0.0,88,0.00,,---,0.00,VWS V14.01,2013-01-19 07:37:00,
2013-01-19 01:42:00,27.9,24.8,30.29,ESE,114,0.0,0.0,88,0.00,,---,0.00,VWS V14.01,2013-01-19 07:42:00,
2013-01-19 01:47:00,27.8,24.7,30.29,ESE,114,0.0,0.0,88,0.00,,---,0.00,VWS V14.01,2013-01-19 07:47:00,
2013-01-19 01:52:00,27.6,24.5,30.28,ESE,114,0.0,0.0,88,0.00,,---,0.00,VWS V14.01,2013-01-19 07:52:00,
2013-01-19 01:57:00,27.5,24.4,30.28,ESE,114,0.0,0.0,88,0.00,,---,0.00,VWS V14.01,2013-01-19 07:57:00,
2013-01-19 02:02:00,27.3,24.2,30.29,ESE,114,0.0,0.0,88,0.00,,---,0.00,VWS V14.01,2013-01-19 08:02:00,
2013-01-19 02:07:00,27.2,24.1,30.28,ESE,114,0.0,0.0,88,0.00,,---,0.00,VWS V14.01,2013-01-19 08:07:00,
2013-01-19 02:13:00,27.0,23.9,30.28,ESE,114,0.0,0.0,88,0.00,,---,0.00,VWS V14.01,2013-01-19 08:13:00,
2013-01-19 02:18:00,26.7,23.6,30.28,ESE,114,0.0,0.0,88,0.00,,---,0.00,VWS V14.01,2013-01-19 08:18:00,
2013-01-19 02:23:00,26.6,23.8,30.28,ESE,114,0.0,0.0,89,0.00,,---,0.00,VWS V14.01,2013-01-19 08:23:00,
2013-01-19 02:28:00,26.6,23.8,30.28,ESE,114,0.0,0.0,89,0.00,,---,0.00,VWS V14.01,2013-01-19 08:28:00,
2013-01-19 02:33:00,26.6,23.8,30.28,ESE,114,0.0,0.0,89,0.00,,---,0.00,VWS V14.01,2013-01-19 08:33:00,
2013-01-19 02:38:00,26.6,23.8,30.28,ESE,114,0.0,0.0,89,0.00,,---,0.00,VWS V14.01,2013-01-19 08:38:00,
2013-01-19 02:43:00,26.6,23.8,30.28,ESE,114,0.0,0.0,89,0.00,,---,0.00,VWS V14.01,2013-01-19 08:43:00,
2013-01-19 02:48:00,26.4,23.6,30.28,ESE,114,0.0,0.0,89,0.00,,---,0.00,VWS V14.01,2013-01-19 08:48:00,
2013-01-19 02:53:00,26.3,23.5,30.28,ESE,114,0.0,0.0,89,0.00,,---,0.00,VWS V14.01,2013-01-19 08:53:00,
2013-01-19 02:58:00,26.1,23.3,30.28,ESE,114,0.0,0.0,89,0.00,,---,0.00,VWS V14.01,2013-01-19 08:58:00,
2013-01-19 03:03:00,26.1,23.6,30.27,ESE,114,0.0,0.0,90,0.00,,---,0.00,VWS V14.01,2013-01-19 09:03:00,
2013-01-19 03:08:00,26.1,23.6,30.27,ESE,114,0.0,0.0,90,0.00,,---,0.00,VWS V14.01,2013-01-19 09:08:00,
2013-01-19 03:13:00,26.0,23.5,30.27,ESE,114,0.0,0.0,90,0.00,,---,0.00,VWS V14.01,2013-01-19 09:13:00,
2013-01-19 03:18:00,26.0,23.5,30.27,ESE,114,0.0,0.0,90,0.00,,---,0.00,VWS V14.01,2013-01-19 09:18:00,
2013-01-19 03:23:00,26.0,23.7,30.27,ESE,114,0.0,0.0,91,0.00,,---,0.00,VWS V14.01,2013-01-19 09:23:00,
2013-01-19 03:28:00,26.1,23.6,30.27,ESE,114,0.0,0.0,90,0.00,,---,0.00,VWS V14.01,2013-01-19 09:28:00,
2013-01-19 03:33:00,26.0,23.5,30.27,ESE,114,0.0,0.0,90,0.00,,---,0.00,VWS V14.01,2013-01-19 09:33:00,
2013-01-19 03:38:00,26.0,23.7,30.27,ESE,114,0.0,0.0,91,0.00,,---,0.00,VWS V14.01,2013-01-19 09:38:00,
2013-01-19 03:43:00,26.0,23.7,30.27,ESE,114,0.0,0.0,91,0.00,,---,0.00,VWS V14.01,2013-01-19 09:43:00,
2013-01-19 03:48:00,26.0,23.7,30.26,ESE,114,0.0,0.0,91,0.00,,---,0.00,VWS V14.01,2013-01-19 09:48:00,
2013-01-19 03:53:00,25.8,23.5,30.26,ESE,114,0.0,0.0,91,0.00,,---,0.00,VWS V14.01,2013-01-19 09:53:00,
2013-01-19 03:58:00,25.8,23.5,30.26,ESE,114,0.0,0.0,91,0.00,,---,0.00,VWS V14.01,2013-01-19 09:58:00,
2013-01-19 04:03:00,25.7,23.4,30.26,ESE,114,0.0,0.0,91,0.00,,---,0.00,VWS V14.01,2013-01-19 10:03:00,
2013-01-19 04:08:00,25.7,23.4,30.26,ESE,114,0.0,0.0,91,0.00,,---,0.00,VWS V14.01,2013-01-19 10:08:00,
2013-01-19 04:13:00,25.7,23.7,30.26,ESE,114,0.0,0.0,92,0.00,,---,0.00,VWS V14.01,2013-01-19 10:13:00,
2013-01-19 04:18:00,25.7,23.4,30.26,ESE,114,0.0,0.0,91,0.00,,---,0.00,VWS V14.01,2013-01-19 10:18:00,
2013-01-19 04:23:00,25.6,23.3,30.26,ESE,114,0.0,0.0,91,0.00,,---,0.00,VWS V14.01,2013-01-19 10:23:00,
2013-01-19 04:28:00,25.6,23.3,30.26,ESE,114,0.0,0.0,91,0.00,,---,0.00,VWS V14.01,2013-01-19 10:28:00,
2013-01-19 04:33:00,25.4,23.1,30.26,ESE,114,0.0,0.0,91,0.00,,---,0.00,VWS V14.01,2013-01-19 10:33:00,
2013-01-19 04:38:00,25.3,23.3,30.26,ESE,114,0.0,0.0,92,0.00,,---,0.00,VWS V14.01,2013-01-19 10:38:00,
2013-01-19 04:43:00,25.3,23.0,30.26,ESE,114,0.0,0.0,91,0.00,,---,0.00,VWS V14.01,2013-01-19 10:43:00,
2013-01-19 04:48:00,25.3,23.3,30.26,ESE,114,0.0,0.0,92,0.00,,---,0.00,VWS V14.01,2013-01-19 10:48:00,
2013-01-19 04:53:00,25.4,23.4,30.26,ESE,114,0.0,0.0,92,0.00,,---,0.00,VWS V14.01,2013-01-19 10:53:00,
2013-01-19 04:58:00,25.4,23.4,30.26,ESE,114,0.0,0.0,92,0.00,,---,0.00,VWS V14.01,2013-01-19 10:58:00,
2013-01-19 05:03:00,25.4,23.4,30.27,ESE,114,0.0,0.0,92,0.00,,---,0.00,VWS V14.01,2013-01-19 11:03:00,
2013-01-19 05:08:00,25.3,23.3,30.27,ESE,114,0.0,0.0,92,0.00,,---,0.00,VWS V14.01,2013-01-19 11:08:00,
2013-01-19 05:13:00,25.1,23.1,30.27,ESE,114,0.0,0.0,92,0.00,,---,0.00,VWS V14.01,2013-01-19 11:13:00,
2013-01-19 06:47:00,25.0,23.0,30.27,ESE,114,0.0,0.0,92,0.00,,---,0.00,VWS V14.01,2013-01-19 12:47:00,
2013-01-19 06:48:00,24.8,22.8,30.27,ESE,114,0.0,0.0,92,0.00,,---,0.00,VWS V14.01,2013-01-19 12:48:00,
2013-01-19 06:53:00,24.8,22.8,30.27,ESE,114,0.0,0.0,92,0.00,,---,0.00,VWS V14.01,2013-01-19 12:53:00,
2013-01-19 06:58:00,24.7,22.7,30.28,ESE,114,0.0,0.0,92,0.00,,---,0.00,VWS V14.01,2013-01-19 12:58:00,
2013-01-19 07:03:00,24.7,22.7,30.28,ESE,114,0.0,0.0,92,0.00,,---,0.00,VWS V14.01,2013-01-19 13:03:00,
2013-01-19 07:08:00,24.5,22.5,30.28,ESE,114,0.0,0.0,92,0.00,,---,0.00,VWS V14.01,2013-01-19 13:08:00,
2013-01-19 07:13:00,24.4,22.4,30.28,ESE,114,0.0,0.0,92,0.00,,---,0.00,VWS V14.01,2013-01-19 13:13:00,
2013-01-19 07:18:00,24.4,22.4,30.28,ESE,114,0.0,0.0,92,0.00,,---,0.00,VWS V14.01,2013-01-19 13:18:00,
2013-01-19 07:23:00,24.2,22.2,30.28,ESE,114,0.0,0.0,92,0.00,,---,0.00,VWS V14.01,2013-01-19 13:23:00,
2013-01-19 07:28:00,24.1,22.1,30.28,ESE,114,0.0,0.0,92,0.00,,---,0.00,VWS V14.01,2013-01-19 13:28:00,
2013-01-19 07:33:00,24.1,22.1,30.28,ESE,115,0.0,0.0,92,0.00,,---,0.00,VWS V14.01,2013-01-19 13:33:00,
2013-01-19 07:38:00,24.1,22.1,30.28,ESE,114,0.0,0.0,92,0.00,,---,0.00,VWS V14.01,2013-01-19 13:38:00,
2013-01-19 07:43:00,24.1,22.1,30.28,ESE,114,0.0,0.0,92,0.00,,---,0.00,VWS V14.01,2013-01-19 13:43:00,
2013-01-19 07:48:00,24.2,22.2,30.28,ESE,114,0.0,0.0,92,0.00,,---,0.00,VWS V14.01,2013-01-19 13:48:00,
2013-01-19 07:53:00,24.2,22.2,30.28,ESE,114,0.0,0.0,92,0.00,,---,0.00,VWS V14.01,2013-01-19 13:53:00,
2013-01-19 07:58:00,24.4,22.4,30.28,ESE,114,0.0,0.0,92,0.00,,---,0.00,VWS V14.01,2013-01-19 13:58:00,
2013-01-19 08:03:00,24.5,22.8,30.28,ESE,114,0.0,0.0,93,0.00,,---,0.00,VWS V14.01,2013-01-19 14:03:00,
2013-01-19 08:08:00,25.0,23.5,30.28,ESE,114,0.0,0.0,94,0.00,,---,0.00,VWS V14.01,2013-01-19 14:08:00,
2013-01-19 08:13:00,26.0,24.5,30.28,ESE,115,0.0,0.0,94,0.00,,---,0.00,VWS V14.01,2013-01-19 14:13:00,
2013-01-19 08:18:00,26.7,25.2,30.28,ESE,114,0.0,0.0,94,0.00,,---,0.00,VWS V14.01,2013-01-19 14:18:00,
2013-01-19 08:23:00,27.8,26.6,30.28,ESE,114,0.0,0.0,95,0.00,,---,0.00,VWS V14.01,2013-01-19 14:23:00,
2013-01-19 08:28:00,28.8,27.5,30.28,ESE,114,0.0,0.0,95,0.00,,---,0.00,VWS V14.01,2013-01-19 14:28:00,
2013-01-19 08:33:00,29.7,28.5,30.27,ESE,114,0.0,0.0,95,0.00,,---,0.00,VWS V14.01,2013-01-19 14:33:00,
2013-01-19 08:38:00,30.9,29.6,30.28,ESE,114,0.0,0.0,95,0.00,,---,0.00,VWS V14.01,2013-01-19 14:38:00,
2013-01-19 08:43:00,31.8,30.5,30.28,ESE,114,0.0,0.0,95,0.00,,---,0.00,VWS V14.01,2013-01-19 14:43:00,
2013-01-19 08:48:00,33.1,31.6,30.28,ESE,114,0.0,0.0,94,0.00,,---,0.00,VWS V14.01,2013-01-19 14:48:00,
2013-01-19 08:53:00,34.4,32.9,30.28,ESE,114,1.0,1.0,94,0.00,,---,0.00,VWS V14.01,2013-01-19 14:53:00,
2013-01-19 08:58:00,35.8,34.2,30.27,ESE,114,0.0,1.0,94,0.00,,---,0.00,VWS V14.01,2013-01-19 14:58:00,
2013-01-19 09:03:00,37.5,34.8,30.28,ESE,115,1.0,5.0,90,0.00,,---,0.00,VWS V14.01,2013-01-19 15:03:00,
2013-01-19 09:08:00,39.1,34.7,30.28,SE,138,1.0,6.0,84,0.00,,---,0.00,VWS V14.01,2013-01-19 15:08:00,
2013-01-19 09:13:00,40.5,36.0,30.28,SE,138,1.0,3.0,84,0.00,,---,0.00,VWS V14.01,2013-01-19 15:13:00,
2013-01-19 09:18:00,41.8,37.3,30.28,SE,140,5.0,7.0,84,0.00,,---,0.00,VWS V14.01,2013-01-19 15:18:00,
2013-01-19 09:23:00,42.9,38.4,30.28,SE,132,2.0,5.0,84,0.00,,---,0.00,VWS V14.01,2013-01-19 15:23:00,
2013-01-19 09:28:00,44.1,39.6,30.28,South,177,3.0,11.0,84,0.00,,---,0.00,VWS V14.01,2013-01-19 15:28:00,
2013-01-19 09:33:00,44.9,33.5,30.28,SSE,163,8.0,10.0,64,0.00,,---,0.00,VWS V14.01,2013-01-19 15:33:00,
2013-01-19 09:38:00,45.5,33.2,30.29,SSE,162,5.0,7.0,62,0.00,,---,0.00,VWS V14.01,2013-01-19 15:38:00,
2013-01-19 09:43:00,46.0,33.3,30.29,SSE,164,5.0,10.0,61,0.00,,---,0.00,VWS V14.01,2013-01-19 15:43:00,
2013-01-19 09:48:00,46.4,33.7,30.29,SE,139,6.0,8.0,61,0.00,,---,0.00,VWS V14.01,2013-01-19 15:48:00,
2013-01-19 09:53:00,46.5,33.0,30.29,SE,142,7.0,10.0,59,0.00,,---,0.00,VWS V14.01,2013-01-19 15:53:00,
2013-01-19 09:58:00,47.1,33.5,30.29,SE,139,6.0,12.0,59,0.00,,---,0.00,VWS V14.01,2013-01-19 15:58:00,
2013-01-19 10:03:00,47.1,33.5,30.29,SE,139,5.0,10.0,59,0.00,,---,0.00,VWS V14.01,2013-01-19 16:03:00,
2013-01-19 10:08:00,48.0,34.8,30.29,SE,140,3.0,7.0,60,0.00,,---,0.00,VWS V14.01,2013-01-19 16:08:00,
2013-01-19 10:13:00,48.5,34.8,30.29,SE,145,2.0,8.0,59,0.00,,---,0.00,VWS V14.01,2013-01-19 16:13:00,
2013-01-19 10:18:00,49.2,35.5,30.29,SSE,164,6.0,7.0,59,0.00,,---,0.00,VWS V14.01,2013-01-19 16:18:00,
2013-01-19 10:23:00,49.8,35.6,30.29,South,180,6.0,12.0,58,0.00,,---,0.00,VWS V14.01,2013-01-19 16:23:00,
2013-01-19 10:28:00,50.2,36.4,30.28,South,174,7.0,11.0,59,0.00,,---,0.00,VWS V14.01,2013-01-19 16:28:00,
2013-01-19 10:33:00,51.0,36.8,30.29,South,180,5.0,8.0,58,0.00,,---,0.00,VWS V14.01,2013-01-19 16:33:00,
2013-01-19 10:38:00,51.4,36.7,30.28,SSE,156,5.0,10.0,57,0.00,,---,0.00,VWS V14.01,2013-01-19 16:38:00,
2013-01-19 10:43:00,51.7,37.0,30.28,SSE,156,5.0,7.0,57,0.00,,---,0.00,VWS V14.01,2013-01-19 16:43:00,
2013-01-19 10:48:00,52.2,37.4,30.28,SSE,147,2.0,8.0,57,0.00,,---,0.00,VWS V14.01,2013-01-19 16:48:00,
2013-01-19 10:53:00,52.8,37.5,30.28,South,171,3.0,8.0,56,0.00,,---,0.00,VWS V14.01,2013-01-19 16:53:00,
2013-01-19 10:58:00,53.6,37.8,30.28,ESE,121,5.0,8.0,55,0.00,,---,0.00,VWS V14.01,2013-01-19 16:58:00,
2013-01-19 11:03:00,53.9,38.6,30.28,SSW,203,8.0,13.0,56,0.00,,---,0.00,VWS V14.01,2013-01-19 17:03:00,
2013-01-19 11:09:00,54.4,38.6,30.27,SSW,207,3.0,11.0,55,0.00,,---,0.00,VWS V14.01,2013-01-19 17:09:00,
2013-01-19 11:14:00,55.3,39.4,30.27,South,170,6.0,11.0,55,0.00,,---,0.00,VWS V14.01,2013-01-19 17:14:00,
2013-01-19 11:19:00,55.6,38.3,30.27,SE,142,7.0,17.0,52,0.00,,---,0.00,VWS V14.01,2013-01-19 17:19:00,
2013-01-19 11:24:00,55.7,38.8,30.26,South,183,5.0,16.0,53,0.00,,---,0.00,VWS V14.01,2013-01-19 17:24:00,
2013-01-19 11:29:00,56.2,38.8,30.26,South,180,8.0,11.0,52,0.00,,---,0.00,VWS V14.01,2013-01-19 17:29:00,
2013-01-19 11:34:00,56.5,38.6,30.26,SSE,166,8.0,11.0,51,0.00,,---,0.00,VWS V14.01,2013-01-19 17:34:00,
2013-01-19 11:39:00,56.9,39.0,30.25,South,170,6.0,10.0,51,0.00,,---,0.00,VWS V14.01,2013-01-19 17:39:00,
2013-01-19 11:44:00,57.2,38.2,30.25,SSE,149,5.0,12.0,49,0.00,,---,0.00,VWS V14.01,2013-01-19 17:44:00,
2013-01-19 11:50:00,57.3,39.3,30.25,SE,140,3.0,11.0,51,0.00,,---,0.00,VWS V14.01,2013-01-19 17:50:00,
2013-01-19 11:55:00,57.3,39.3,30.24,SE,142,10.0,10.0,51,0.00,,---,0.00,VWS V14.01,2013-01-19 17:55:00,
2013-01-19 12:00:00,57.5,39.0,30.24,SSE,147,3.0,6.0,50,0.00,,---,0.00,VWS V14.01,2013-01-19 18:00:00,
2013-01-19 12:05:00,57.8,38.8,30.24,SSE,167,1.0,6.0,49,0.00,,---,0.00,VWS V14.01,2013-01-19 18:05:00,
2013-01-19 12:10:00,58.3,39.2,30.24,SSW,201,7.0,7.0,49,0.00,,---,0.00,VWS V14.01,2013-01-19 18:10:00,
2013-01-19 12:15:00,58.0,39.0,30.23,SSW,203,5.0,5.0,49,0.00,,---,0.00,VWS V14.01,2013-01-19 18:15:00,
2013-01-19 12:20:00,58.0,39.0,30.23,South,190,5.0,5.0,49,0.00,,---,0.00,VWS V14.01,2013-01-19 18:20:00,
2013-01-19 12:25:00,58.4,39.3,30.23,SSE,150,2.0,5.0,49,0.00,,---,0.00,VWS V14.01,2013-01-19 18:25:00,
2013-01-19 12:30:00,58.9,39.8,30.22,SW,232,6.0,6.0,49,0.00,,---,0.00,VWS V14.01,2013-01-19 18:30:00,
2013-01-19 12:35:00,58.9,39.8,30.22,SE,143,5.0,6.0,49,0.00,,---,0.00,VWS V14.01,2013-01-19 18:35:00,
2013-01-19 12:41:00,59.3,39.6,30.21,SSE,150,3.0,5.0,48,0.00,,---,0.00,VWS V14.01,2013-01-19 18:41:00,
2013-01-19 12:46:00,59.6,39.9,30.21,SE,138,3.0,10.0,48,0.00,,---,0.00,VWS V14.01,2013-01-19 18:46:00,
2013-01-19 12:52:00,59.8,39.5,30.20,SSW,201,0.0,5.0,47,0.00,,---,0.00,VWS V14.01,2013-01-19 18:52:00,
2013-01-19 12:57:00,60.5,39.6,30.20,South,183,3.0,5.0,46,0.00,,---,0.00,VWS V14.01,2013-01-19 18:57:00,
2013-01-19 13:02:00,60.7,39.3,30.20,South,179,6.0,8.0,45,0.00,,---,0.00,VWS V14.01,2013-01-19 19:02:00,
2013-01-19 13:07:00,60.9,39.4,30.19,SW,234,3.0,5.0,45,0.00,,---,0.00,VWS V14.01,2013-01-19 19:07:00,
2013-01-19 13:12:00,61.0,39.0,30.19,SE,139,10.0,10.0,44,0.00,,---,0.00,VWS V14.01,2013-01-19 19:12:00,
2013-01-19 13:18:00,61.6,40.1,30.18,SE,139,3.0,7.0,45,0.00,,---,0.00,VWS V14.01,2013-01-19 19:18:00,
2013-01-19 13:23:00,62.0,40.4,30.18,South,179,2.0,7.0,45,0.00,,---,0.00,VWS V14.01,2013-01-19 19:23:00,
2013-01-19 13:28:00,62.3,39.5,30.18,SE,139,8.0,8.0,43,0.00,,---,0.00,VWS V14.01,2013-01-19 19:28:00,
2013-01-19 13:33:00,62.3,39.5,30.18,SSE,152,8.0,8.0,43,0.00,,---,0.00,VWS V14.01,2013-01-19 19:33:00,
2013-01-19 13:38:00,62.6,39.8,30.17,South,181,5.0,10.0,43,0.00,,---,0.00,VWS V14.01,2013-01-19 19:38:00,
2013-01-19 13:43:00,62.3,39.5,30.17,SSW,198,2.0,10.0,43,0.00,,---,0.00,VWS V14.01,2013-01-19 19:43:00,
2013-01-19 13:48:00,62.4,39.6,30.17,SE,142,11.0,11.0,43,0.00,,---,0.00,VWS V14.01,2013-01-19 19:48:00,
2013-01-19 13:54:00,62.9,38.9,30.17,SE,139,6.0,10.0,41,0.00,,---,0.00,VWS V14.01,2013-01-19 19:54:00,
2013-01-19 13:59:00,63.2,39.1,30.17,South,169,6.0,7.0,41,0.00,,---,0.00,VWS V14.01,2013-01-19 19:59:00,
2013-01-19 14:04:00,63.5,38.8,30.16,South,173,7.0,8.0,40,0.00,,---,0.00,VWS V14.01,2013-01-19 20:04:00,
2013-01-19 14:09:00,63.7,39.6,30.16,South,186,5.0,11.0,41,0.00,,---,0.00,VWS V14.01,2013-01-19 20:09:00,
2013-01-19 14:14:00,63.7,39.6,30.16,SSE,147,8.0,8.0,41,0.00,,---,0.00,VWS V14.01,2013-01-19 20:14:00,
2013-01-19 14:20:00,63.7,39.6,30.15,SSE,149,6.0,8.0,41,0.00,,---,0.00,VWS V14.01,2013-01-19 20:20:00,
2013-01-19 14:25:00,64.0,39.8,30.15,SE,139,5.0,6.0,41,0.00,,---,0.00,VWS V14.01,2013-01-19 20:25:00,
2013-01-19 14:30:00,64.3,38.8,30.15,SE,146,6.0,7.0,39,0.00,,---,0.00,VWS V14.01,2013-01-19 20:30:00,
2013-01-19 14:35:00,64.3,38.8,30.15,ESE,112,6.0,7.0,39,0.00,,---,0.00,VWS V14.01,2013-01-19 20:35:00,
2013-01-19 14:40:00,64.2,39.4,30.15,SSW,203,7.0,7.0,40,0.00,,---,0.00,VWS V14.01,2013-01-19 20:40:00,
2013-01-19 14:45:00,63.7,39.0,30.15,SSE,153,5.0,5.0,40,0.00,,---,0.00,VWS V14.01,2013-01-19 20:45:00,
2013-01-19 14:50:00,63.9,39.8,30.15,SSE,164,3.0,6.0,41,0.00,,---,0.00,VWS V14.01,2013-01-19 20:50:00,
2013-01-19 14:56:00,63.9,39.8,30.15,SSE,149,3.0,10.0,41,0.00,,---,0.00,VWS V14.01,2013-01-19 20:56:00,
2013-01-19 15:02:00,63.7,39.6,30.15,SSE,167,8.0,8.0,41,0.00,,---,0.00,VWS V14.01,2013-01-19 21:02:00,
2013-01-19 15:07:00,63.4,39.3,30.15,SSE,164,5.0,7.0,41,0.00,,---,0.00,VWS V14.01,2013-01-19 21:07:00,
2013-01-19 15:12:00,63.2,39.1,30.15,SSE,162,7.0,7.0,41,0.00,,---,0.00,VWS V14.01,2013-01-19 21:12:00,
2013-01-19 15:17:00,63.4,39.9,30.15,SE,139,5.0,7.0,42,0.00,,---,0.00,VWS V14.01,2013-01-19 21:17:00,
2013-01-19 15:23:00,63.7,40.2,30.15,South,177,6.0,10.0,42,0.00,,---,0.00,VWS V14.01,2013-01-19 21:23:00,
2013-01-19 15:29:00,63.9,39.8,30.15,SE,145,2.0,8.0,41,0.00,,---,0.00,VWS V14.01,2013-01-19 21:29:00,
2013-01-19 15:34:00,63.7,39.6,30.15,South,186,7.0,11.0,41,0.00,,---,0.00,VWS V14.01,2013-01-19 21:34:00,
2013-01-19 15:40:00,63.2,39.8,30.15,SSE,164,3.0,7.0,42,0.00,,---,0.00,VWS V14.01,2013-01-19 21:40:00,
2013-01-19 15:45:00,63.1,39.7,30.14,South,177,5.0,8.0,42,0.00,,---,0.00,VWS V14.01,2013-01-19 21:45:00,
2013-01-19 15:50:00,62.7,39.3,30.15,SSW,197,8.0,8.0,42,0.00,,---,0.00,VWS V14.01,2013-01-19 21:50:00,
2013-01-19 15:55:00,62.3,39.5,30.14,South,176,5.0,10.0,43,0.00,,---,0.00,VWS V14.01,2013-01-19 21:55:00,
2013-01-19 16:00:00,62.3,39.5,30.14,SE,138,2.0,10.0,43,0.00,,---,0.00,VWS V14.01,2013-01-19 22:00:00,
2013-01-19 16:05:00,62.1,39.4,30.15,SSW,205,6.0,6.0,43,0.00,,---,0.00,VWS V14.01,2013-01-19 22:05:00,
2013-01-19 16:10:00,61.8,39.7,30.15,SSE,162,5.0,5.0,44,0.00,,---,0.00,VWS V14.01,2013-01-19 22:10:00,
2013-01-19 16:15:00,61.8,39.1,30.15,SSE,150,5.0,5.0,43,0.00,,---,0.00,VWS V14.01,2013-01-19 22:15:00,
2013-01-19 16:20:00,61.8,39.1,30.15,SSE,167,5.0,6.0,43,0.00,,---,0.00,VWS V14.01,2013-01-19 22:20:00,
2013-01-19 16:25:00,62.0,38.7,30.15,South,170,3.0,3.0,42,0.00,,---,0.00,VWS V14.01,2013-01-19 22:25:00,
2013-01-19 16:30:00,62.0,39.3,30.15,South,174,2.0,2.0,43,0.00,,---,0.00,VWS V14.01,2013-01-19 22:30:00,
2013-01-19 16:37:00,61.3,38.6,30.15,SE,138,1.0,3.0,43,0.00,,---,0.00,VWS V14.01,2013-01-19 22:37:00,
2013-01-19 16:42:00,60.9,39.4,30.15,SE,138,2.0,3.0,45,0.00,,---,0.00,VWS V14.01,2013-01-19 22:42:00,
2013-01-19 16:49:00,60.4,40.1,30.15,SE,138,0.0,2.0,47,0.00,,---,0.00,VWS V14.01,2013-01-19 22:49:00,
2013-01-19 16:55:00,60.1,40.9,30.15,SE,138,0.0,1.0,49,0.00,,---,0.00,VWS V14.01,2013-01-19 22:55:00,
2013-01-19 17:00:00,59.9,40.7,30.15,SE,138,0.0,0.0,49,0.00,,---,0.00,VWS V14.01,2013-01-19 23:00:00,
2013-01-19 17:09:00,59.0,41.4,30.15,SE,138,0.0,0.0,52,0.00,,---,0.00,VWS V14.01,2013-01-19 23:09:00,
2013-01-19 17:14:00,58.1,41.6,30.15,SE,138,0.0,0.0,54,0.00,,---,0.00,VWS V14.01,2013-01-19 23:14:00,
2013-01-19 17:19:00,56.7,43.0,30.15,SE,138,0.0,0.0,60,0.00,,---,0.00,VWS V14.01,2013-01-19 23:19:00,
2013-01-19 17:24:00,56.2,43.0,30.15,SE,138,0.0,0.0,61,0.00,,---,0.00,VWS V14.01,2013-01-19 23:24:00,
2013-01-19 17:29:00,55.1,43.6,30.15,SE,138,0.0,0.0,65,0.00,,---,0.00,VWS V14.01,2013-01-19 23:29:00,
2013-01-19 17:34:00,54.1,43.4,30.15,SE,138,1.0,1.0,67,0.00,,---,0.00,VWS V14.01,2013-01-19 23:34:00,
2013-01-19 17:39:00,53.2,42.9,30.15,SE,138,0.0,1.0,68,0.00,,---,0.00,VWS V14.01,2013-01-19 23:39:00,
2013-01-19 17:44:00,52.6,42.0,30.15,SE,138,0.0,0.0,67,0.00,,---,0.00,VWS V14.01,2013-01-19 23:44:00,
2013-01-19 17:49:00,51.7,41.9,30.15,SE,138,0.0,0.0,69,0.00,,---,0.00,VWS V14.01,2013-01-19 23:49:00,
2013-01-19 17:54:00,50.5,41.1,30.15,SE,138,0.0,0.0,70,0.00,,---,0.00,VWS V14.01,2013-01-19 23:54:00,
2013-01-19 18:00:00,49.2,40.2,30.16,SE,138,0.0,0.0,71,0.00,,---,0.00,VWS V14.01,2013-01-20 00:00:00,
2013-01-19 18:05:00,48.0,40.1,30.16,SE,138,0.0,0.0,74,0.00,,---,0.00,VWS V14.01,2013-01-20 00:05:00,
2013-01-19 18:10:00,47.0,38.8,30.16,SE,138,0.0,0.0,73,0.00,,---,0.00,VWS V14.01,2013-01-20 00:10:00,
2013-01-19 18:15:00,46.2,38.4,30.16,SE,138,0.0,0.0,74,0.00,,---,0.00,VWS V14.01,2013-01-20 00:15:00,
2013-01-19 18:20:00,45.7,38.9,30.16,SE,138,0.0,0.0,77,0.00,,---,0.00,VWS V14.01,2013-01-20 00:20:00,
2013-01-19 18:25:00,45.2,38.4,30.16,SE,138,0.0,0.0,77,0.00,,---,0.00,VWS V14.01,2013-01-20 00:25:00,
2013-01-19 18:30:00,44.6,37.8,30.16,SE,138,0.0,0.0,77,0.00,,---,0.00,VWS V14.01,2013-01-20 00:30:00,
2013-01-19 18:35:00,44.1,37.4,30.17,SE,138,0.0,0.0,77,0.00,,---,0.00,VWS V14.01,2013-01-20 00:35:00,
2013-01-19 18:40:00,43.5,36.8,30.17,SE,138,0.0,0.0,77,0.00,,---,0.00,VWS V14.01,2013-01-20 00:40:00,
2013-01-19 18:45:00,43.3,38.8,30.17,SE,138,0.0,0.0,84,0.00,,---,0.00,VWS V14.01,2013-01-20 00:45:00,
2013-01-19 18:50:00,43.3,38.8,30.16,SE,138,0.0,0.0,84,0.00,,---,0.00,VWS V14.01,2013-01-20 00:50:00,
2013-01-19 18:55:00,43.2,38.4,30.17,SE,138,0.0,0.0,83,0.00,,---,0.00,VWS V14.01,2013-01-20 00:55:00,
2013-01-19 19:00:00,42.5,37.7,30.17,SE,138,0.0,0.0,83,0.00,,---,0.00,VWS V14.01,2013-01-20 01:00:00,
2013-01-19 19:05:00,42.1,37.0,30.17,SE,138,0.0,0.0,82,0.00,,---,0.00,VWS V14.01,2013-01-20 01:05:00,
2013-01-19 19:10:00,41.6,36.8,30.17,SE,138,0.0,0.0,83,0.00,,---,0.00,VWS V14.01,2013-01-20 01:10:00,
2013-01-19 19:15:00,41.3,36.5,30.17,SE,138,0.0,0.0,83,0.00,,---,0.00,VWS V14.01,2013-01-20 01:15:00,
2013-01-19 19:21:00,40.9,36.5,30.18,SE,138,0.0,0.0,84,0.00,,---,0.00,VWS V14.01,2013-01-20 01:21:00,
2013-01-19 19:26:00,40.8,36.7,30.18,SE,138,0.0,0.0,85,0.00,,---,0.00,VWS V14.01,2013-01-20 01:26:00,
2013-01-19 19:31:00,40.6,36.8,30.18,SE,138,0.0,0.0,86,0.00,,---,0.00,VWS V14.01,2013-01-20 01:31:00,
2013-01-19 19:36:00,40.3,36.5,30.18,SE,138,0.0,0.0,86,0.00,,---,0.00,VWS V14.01,2013-01-20 01:36:00,
2013-01-19 19:41:00,40.2,36.1,30.18,SE,138,0.0,0.0,85,0.00,,---,0.00,VWS V14.01,2013-01-20 01:41:00,
2013-01-19 19:46:00,39.8,36.0,30.18,SE,138,0.0,0.0,86,0.00,,---,0.00,VWS V14.01,2013-01-20 01:46:00,
2013-01-19 19:51:00,39.5,35.7,30.18,SE,138,0.0,0.0,86,0.00,,---,0.00,VWS V14.01,2013-01-20 01:51:00,
2013-01-19 19:57:00,39.2,35.4,30.19,SE,138,0.0,0.0,86,0.00,,---,0.00,VWS V14.01,2013-01-20 01:57:00,
2013-01-19 20:02:00,38.9,35.1,30.18,SE,138,0.0,0.0,86,0.00,,---,0.00,VWS V14.01,2013-01-20 02:02:00,
2013-01-19 20:07:00,38.6,35.1,30.19,SE,138,0.0,0.0,87,0.00,,---,0.00,VWS V14.01,2013-01-20 02:07:00,
2013-01-19 20:12:00,38.3,34.8,30.19,SE,138,0.0,0.0,87,0.00,,---,0.00,VWS V14.01,2013-01-20 02:12:00,
2013-01-19 20:17:00,38.0,34.5,30.19,SE,138,0.0,0.0,87,0.00,,---,0.00,VWS V14.01,2013-01-20 02:17:00,
2013-01-19 20:22:00,37.9,34.7,30.19,SE,138,0.0,0.0,88,0.00,,---,0.00,VWS V14.01,2013-01-20 02:22:00,
2013-01-19 20:28:00,37.8,34.9,30.19,SE,138,0.0,0.0,89,0.00,,---,0.00,VWS V14.01,2013-01-20 02:28:00,
2013-01-19 20:33:00,37.6,34.7,30.20,SE,138,0.0,0.0,89,0.00,,---,0.00,VWS V14.01,2013-01-20 02:33:00,
2013-01-19 20:38:00,37.3,34.4,30.19,SE,138,0.0,0.0,89,0.00,,---,0.00,VWS V14.01,2013-01-20 02:38:00,
2013-01-19 20:43:00,37.2,34.3,30.20,SE,138,0.0,0.0,89,0.00,,---,0.00,VWS V14.01,2013-01-20 02:43:00,
2013-01-19 20:48:00,37.0,34.1,30.20,SE,138,0.0,0.0,89,0.00,,---,0.00,VWS V14.01,2013-01-20 02:48:00,
2013-01-19 20:53:00,36.8,33.9,30.20,SE,138,0.0,0.0,89,0.00,,---,0.00,VWS V14.01,2013-01-20 02:53:00,
2013-01-19 20:58:00,36.6,33.7,30.20,SE,138,0.0,0.0,89,0.00,,---,0.00,VWS V14.01,2013-01-20 02:58:00,
2013-01-19 21:04:00,36.5,33.8,30.20,SE,138,0.0,0.0,90,0.00,,---,0.00,VWS V14.01,2013-01-20 03:04:00,
2013-01-19 21:09:00,36.2,33.6,30.20,SE,138,0.0,0.0,90,0.00,,---,0.00,VWS V14.01,2013-01-20 03:09:00,
2013-01-19 21:14:00,36.0,33.4,30.20,SE,138,0.0,0.0,90,0.00,,---,0.00,VWS V14.01,2013-01-20 03:14:00,
2013-01-19 21:19:00,35.9,33.0,30.20,SE,138,0.0,0.0,89,0.00,,---,0.00,VWS V14.01,2013-01-20 03:19:00,
2013-01-19 21:24:00,35.6,32.7,30.20,SE,138,0.0,0.0,89,0.00,,---,0.00,VWS V14.01,2013-01-20 03:24:00,
2013-01-19 21:30:00,35.3,32.4,30.20,SE,138,0.0,0.0,89,0.00,,---,0.00,VWS V14.01,2013-01-20 03:30:00,
2013-01-19 21:35:00,35.0,32.1,30.20,SE,138,0.0,0.0,89,0.00,,---,0.00,VWS V14.01,2013-01-20 03:35:00,
2013-01-19 21:40:00,34.9,32.0,30.21,SE,138,0.0,0.0,89,0.00,,---,0.00,VWS V14.01,2013-01-20 03:40:00,
2013-01-19 21:45:00,34.7,31.8,30.21,SE,138,0.0,0.0,89,0.00,,---,0.00,VWS V14.01,2013-01-20 03:45:00,
2013-01-19 21:50:00,34.6,31.7,30.21,SE,138,0.0,0.0,89,0.00,,---,0.00,VWS V14.01,2013-01-20 03:50:00,
2013-01-19 21:55:00,34.4,31.5,30.21,SE,138,0.0,0.0,89,0.00,,---,0.00,VWS V14.01,2013-01-20 03:55:00,
2013-01-19 22:00:00,34.4,31.5,30.21,SE,138,0.0,1.0,89,0.00,,---,0.00,VWS V14.01,2013-01-20 04:00:00,
2013-01-19 22:05:00,34.3,31.4,30.21,SE,138,0.0,0.0,89,0.00,,---,0.00,VWS V14.01,2013-01-20 04:05:00,
2013-01-19 22:10:00,34.1,31.8,30.21,SE,138,0.0,0.0,91,0.00,,---,0.00,VWS V14.01,2013-01-20 04:10:00,
2013-01-19 22:15:00,34.0,31.6,30.21,SE,138,0.0,0.0,91,0.00,,---,0.00,VWS V14.01,2013-01-20 04:15:00,
2013-01-19 22:20:00,33.7,31.1,30.21,SE,138,0.0,0.0,90,0.00,,---,0.00,VWS V14.01,2013-01-20 04:20:00,
2013-01-19 22:25:00,33.5,30.9,30.21,SE,138,0.0,0.0,90,0.00,,---,0.00,VWS V14.01,2013-01-20 04:25:00,
2013-01-19 22:30:00,33.2,30.6,30.21,SE,138,0.0,0.0,90,0.00,,---,0.00,VWS V14.01,2013-01-20 04:30:00,
2013-01-19 22:35:00,33.1,30.5,30.21,SE,138,0.0,0.0,90,0.00,,---,0.00,VWS V14.01,2013-01-20 04:35:00,
2013-01-19 22:40:00,32.9,30.6,30.21,SE,138,0.0,0.0,91,0.00,,---,0.00,VWS V14.01,2013-01-20 04:40:00,
2013-01-19 22:45:00,32.8,30.5,30.21,SE,138,0.0,0.0,91,0.00,,---,0.00,VWS V14.01,2013-01-20 04:45:00,
2013-01-19 22:50:00,32.8,30.5,30.21,SE,138,0.0,0.0,91,0.00,,---,0.00,VWS V14.01,2013-01-20 04:50:00,
2013-01-19 22:55:00,32.5,30.2,30.21,SE,138,0.0,0.0,91,0.00,,---,0.00,VWS V14.01,2013-01-20 04:55:00,
2013-01-19 23:01:00,32.5,30.2,30.21,SE,138,0.0,0.0,91,0.00,,---,0.00,VWS V14.01,2013-01-20 05:01:00,
2013-01-19 23:03:00,32.5,30.2,30.21,SE,138,0.0,0.0,91,0.00,,---,0.00,VWS V14.01,2013-01-20 05:03:00,
2013-01-19 23:04:00,32.5,30.2,30.21,SE,138,0.0,0.0,91,0.00,,---,0.00,VWS V14.01,2013-01-20 05:04:00,
2013-01-19 23:09:00,31.9,29.6,30.22,SE,138,0.0,0.0,91,0.00,,---,0.00,VWS V14.01,2013-01-20 05:09:00,
2013-01-19 23:14:00,31.9,29.6,30.22,SE,138,0.0,0.0,91,0.00,,---,0.00,VWS V14.01,2013-01-20 05:14:00,
2013-01-19 23:19:00,31.8,29.5,30.22,SE,138,0.0,0.0,91,0.00,,---,0.00,VWS V14.01,2013-01-20 05:19:00,
2013-01-19 23:24:00,31.9,29.8,30.22,SE,138,0.0,0.0,92,0.00,,---,0.00,VWS V14.01,2013-01-20 05:24:00,
2013-01-19 23:29:00,31.8,29.8,30.22,SE,138,0.0,0.0,92,0.00,,---,0.00,VWS V14.01,2013-01-20 05:29:00,
2013-01-19 23:34:00,31.8,29.8,30.22,SE,138,0.0,0.0,92,0.00,,---,0.00,VWS V14.01,2013-01-20 05:34:00,
2013-01-19 23:39:00,31.8,29.8,30.22,SE,138,0.0,0.0,92,0.00,,---,0.00,VWS V14.01,2013-01-20 05:39:00,
2013-01-19 23:44:00,31.6,29.5,30.22,SE,138,0.0,0.0,92,0.00,,---,0.00,VWS V14.01,2013-01-20 05:44:00,
2013-01-19 23:49:00,31.5,29.5,30.22,SE,138,0.0,0.0,92,0.00,,---,0.00,VWS V14.01,2013-01-20 05:49:00,
2013-01-19 23:54:00,31.3,29.2,30.22,SE,138,0.0,0.0,92,0.00,,---,0.00,VWS V14.01,2013-01-20 05:54:00,
2013-01-19 23:59:00,31.3,29.2,30.22,SE,138,0.0,0.0,92,0.00,,---,0.00,VWS V14.01,2013-01-20 05:59:00,